Time;durP1;ratioP1;P1;durP2;ratioP2;P2;SDS_P1;SDS_P2;PMS_P1;PMS_P2;Temp;Humidity;BMP_temperature;BMP_pressure;BME280_temperature;BME280_humidity;BME280_pressure;Samples;Min_cycle;Max_cycle;Signal;HPM_P1;HPM_P2
2022/11/09 00:00:05;;;;;;;2.73;2.23;;;11.90;99.90;;;;;;4962516;28;20837;-72
2022/11/09 00:02:31;;;;;;;2.50;2.30;;;11.90;99.90;;;;;;4961983;28;20392;-72
2022/11/09 00:04:56;;;;;;;2.97;2.20;;;12.00;99.90;;;;;;4955414;28;20497;-73
2022/11/09 00:07:22;;;;;;;3.27;2.40;;;12.10;99.90;;;;;;4951963;28;20466;-72
2022/11/09 00:09:47;;;;;;;3.13;2.40;;;12.10;99.90;;;;;;4952034;28;20404;-72
2022/11/09 00:12:13;;;;;;;2.30;2.10;;;12.20;99.90;;;;;;4952146;28;20385;-72
2022/11/09 00:14:39;;;;;;;4.50;2.90;;;12.10;99.90;;;;;;4951964;28;20416;-72
2022/11/09 00:17:04;;;;;;;2.80;2.50;;;12.00;99.90;;;;;;4952528;28;20426;-72
2022/11/09 00:19:30;;;;;;;3.47;2.47;;;12.00;99.90;;;;;;4952045;28;20401;-72
2022/11/09 00:21:55;;;;;;;2.70;2.50;;;12.00;99.90;;;;;;4957300;28;20402;-72
2022/11/09 00:24:21;;;;;;;2.95;2.20;;;12.00;99.90;;;;;;4951856;29;20409;-72
2022/11/09 00:26:46;;;;;;;2.40;2.00;;;12.00;99.90;;;;;;4952050;29;20405;-73
2022/11/09 00:29:12;;;;;;;2.23;2.10;;;12.10;99.90;;;;;;4952103;29;20382;-72
2022/11/09 00:31:38;;;;;;;2.78;2.40;;;12.10;99.90;;;;;;4952049;29;20390;-72
2022/11/09 00:34:04;;;;;;;3.27;2.30;;;12.10;99.90;;;;;;4950786;29;20396;-72
2022/11/09 00:36:29;;;;;;;3.17;2.53;;;12.10;99.90;;;;;;4952026;29;20429;-72
2022/11/09 00:38:57;;;;;;;2.45;2.25;;;12.20;99.90;;;;;;4952338;29;20386;-72
2022/11/09 00:41:24;;;;;;;3.00;2.13;;;12.10;99.90;;;;;;4952256;29;20742;-72
2022/11/09 00:43:50;;;;;;;2.50;2.30;;;12.10;99.90;;;;;;4951505;29;20453;-72
2022/11/09 00:46:15;;;;;;;2.30;2.10;;;12.10;99.90;;;;;;4952063;29;20397;-72
2022/11/09 00:48:41;;;;;;;2.33;2.13;;;12.20;99.90;;;;;;4951790;29;20395;-72
2022/11/09 00:51:08;;;;;;;4.20;2.50;;;12.10;99.90;;;;;;4951921;29;20389;-72
2022/11/09 00:53:33;;;;;;;2.25;2.05;;;12.10;99.90;;;;;;4951585;29;20719;-72
2022/11/09 00:56:00;;;;;;;3.53;2.40;;;12.10;99.90;;;;;;4951883;29;20392;-72
2022/11/09 00:58:28;;;;;;;3.10;2.40;;;12.20;99.90;;;;;;4951860;29;20492;-72
2022/11/09 01:00:54;;;;;;;2.72;2.53;;;12.20;99.90;;;;;;4951836;29;20453;-72
2022/11/09 01:03:20;;;;;;;2.60;2.40;;;12.10;99.90;;;;;;4951442;29;20393;-72
2022/11/09 01:05:46;;;;;;;4.78;2.50;;;12.20;99.90;;;;;;4951749;29;20414;-72
2022/11/09 01:08:12;;;;;;;3.40;2.40;;;12.10;99.90;;;;;;4951628;29;20449;-72
2022/11/09 01:10:47;;;;;;;2.72;2.53;;;11.90;99.90;;;;;;4951691;29;20425;-71
2022/11/09 01:13:14;;;;;;;3.05;2.58;;;11.90;99.90;;;;;;4966307;28;20775;-72
2022/11/09 01:15:42;;;;;;;3.10;2.60;;;11.70;99.90;;;;;;4951776;29;20396;-72
2022/11/09 01:18:08;;;;;;;2.50;2.30;;;11.70;99.90;;;;;;4950372;29;20398;-72
2022/11/09 01:20:37;;;;;;;3.30;2.50;;;11.70;99.90;;;;;;4956589;28;20400;-72
2022/11/09 01:23:03;;;;;;;3.05;2.50;;;11.60;99.90;;;;;;4970573;28;20735;-72
2022/11/09 01:25:28;;;;;;;2.80;2.40;;;11.60;99.90;;;;;;4970780;28;20459;-73
2022/11/09 01:27:54;;;;;;;2.63;2.42;;;11.70;99.90;;;;;;4970818;28;20396;-73
2022/11/09 01:30:19;;;;;;;2.67;2.47;;;11.70;99.90;;;;;;4970938;28;20388;-73
2022/11/09 01:32:45;;;;;;;2.70;2.10;;;11.70;99.90;;;;;;4970602;28;20392;-73
2022/11/09 01:35:10;;;;;;;2.30;2.10;;;11.80;99.90;;;;;;4971140;28;20404;-72
2022/11/09 01:37:36;;;;;;;3.70;1.90;;;11.90;99.90;;;;;;4970891;28;20810;-72
2022/11/09 01:40:02;;;;;;;4.40;2.30;;;12.00;99.90;;;;;;4970914;28;20439;-72
2022/11/09 01:42:28;;;;;;;2.40;2.20;;;12.10;99.90;;;;;;4971288;28;20400;-72
2022/11/09 01:45:19;;;;;;;2.90;2.13;;;12.00;99.90;;;;;;4971664;28;20454;-72
2022/11/09 01:47:49;;;;;;;2.50;2.30;;;12.10;99.90;;;;;;4976249;28;20443;-72
2022/11/09 01:50:21;;;;;;;2.10;1.90;;;12.10;99.90;;;;;;4976930;28;20388;-73
2022/11/09 01:52:47;;;;;;;2.47;2.10;;;12.00;99.90;;;;;;4976785;28;20423;-72
2022/11/09 01:55:17;;;;;;;2.42;2.22;;;12.00;99.90;;;;;;4976248;28;20455;-72
2022/11/09 01:57:53;;;;;;;5.80;2.40;;;12.00;99.90;;;;;;4976091;28;20395;-72
2022/11/09 02:00:19;;;;;;;2.90;1.90;;;12.10;99.90;;;;;;4985894;23;20530;-73
2022/11/09 02:03:04;;;;;;;3.10;2.20;;;12.20;99.90;;;;;;4935504;29;21026;-72
2022/11/09 02:05:33;;;;;;;3.08;2.53;;;12.00;99.90;;;;;;4935735;29;20489;-73
2022/11/09 02:08:01;;;;;;;2.60;2.40;;;12.00;99.90;;;;;;4935469;29;20419;-73
2022/11/09 02:10:46;;;;;;;2.77;2.30;;;12.00;99.90;;;;;;4941301;29;20521;-72
2022/11/09 02:13:15;;;;;;;3.30;2.30;;;12.00;99.90;;;;;;4954666;28;20390;-73
2022/11/09 02:15:41;;;;;;;4.30;2.45;;;12.10;99.90;;;;;;4954598;28;20480;-73
2022/11/09 02:18:07;;;;;;;2.90;2.60;;;12.20;99.90;;;;;;4954491;28;20485;-73
2022/11/09 02:20:54;;;;;;;3.08;2.70;;;12.10;99.90;;;;;;4953362;28;20446;-73
2022/11/09 02:23:20;;;;;;;3.47;2.50;;;12.20;99.90;;;;;;4953352;29;20447;-73
2022/11/09 02:26:00;;;;;;;4.47;3.10;;;12.10;99.90;;;;;;4954542;28;20468;-73
2022/11/09 02:28:27;;;;;;;4.22;2.90;;;12.20;99.90;;;;;;4954316;28;20390;-73
2022/11/09 02:30:55;;;;;;;3.30;2.80;;;12.20;99.90;;;;;;4954429;28;20477;-73
2022/11/09 02:33:21;;;;;;;5.25;3.10;;;12.10;99.90;;;;;;4953837;28;20912;-73
2022/11/09 02:35:47;;;;;;;3.10;2.80;;;12.10;99.90;;;;;;4954192;29;20484;-73
2022/11/09 02:38:14;;;;;;;4.30;3.60;;;12.10;99.90;;;;;;4954041;29;20899;-73
2022/11/09 02:40:45;;;;;;;3.45;2.70;;;12.10;99.90;;;;;;4954009;28;20865;-73
2022/11/09 02:43:13;;;;;;;3.60;2.80;;;12.00;99.90;;;;;;4953713;28;20489;-73
2022/11/09 02:45:39;;;;;;;3.60;3.30;;;12.00;99.90;;;;;;4953914;28;20409;-73
2022/11/09 02:48:05;;;;;;;3.33;3.03;;;12.00;99.90;;;;;;4953948;29;20480;-73
2022/11/09 02:50:31;;;;;;;5.30;3.00;;;12.00;99.90;;;;;;4953791;28;20386;-73
2022/11/09 02:52:56;;;;;;;2.93;2.57;;;12.00;99.90;;;;;;4953637;28;20398;-73
2022/11/09 02:55:22;;;;;;;3.40;3.10;;;12.00;99.90;;;;;;4968458;28;20401;-73
2022/11/09 02:57:47;;;;;;;3.35;2.60;;;12.00;99.90;;;;;;4952721;28;20746;-73
2022/11/09 03:00:13;;;;;;;3.20;2.83;;;11.90;99.90;;;;;;4951994;29;20405;-73
2022/11/09 03:02:39;;;;;;;3.20;3.00;;;11.90;99.90;;;;;;4952096;28;20406;-73
2022/11/09 03:05:05;;;;;;;3.10;2.90;;;11.90;99.90;;;;;;4953453;29;20417;-73
2022/11/09 03:07:31;;;;;;;3.50;3.08;;;11.90;99.90;;;;;;4953515;29;20401;-73
2022/11/09 03:09:56;;;;;;;4.60;3.00;;;11.90;99.90;;;;;;4952230;28;20390;-73
2022/11/09 03:12:28;;;;;;;3.50;3.13;;;12.00;99.90;;;;;;4953609;29;20397;-72
2022/11/09 03:15:02;;;;;;;3.40;3.10;;;11.90;99.90;;;;;;4952515;29;20401;-72
2022/11/09 03:17:28;;;;;;;3.40;3.08;;;11.90;99.90;;;;;;4953512;28;20902;-73
2022/11/09 03:19:54;;;;;;;3.58;3.22;;;11.90;99.90;;;;;;4953213;28;20394;-73
2022/11/09 03:22:20;;;;;;;4.20;3.20;;;12.00;99.90;;;;;;4953322;29;20417;-73
2022/11/09 03:24:46;;;;;;;4.70;3.38;;;11.90;99.90;;;;;;4952790;28;20409;-75
2022/11/09 03:27:12;;;;;;;3.33;3.03;;;11.90;99.90;;;;;;4953422;28;20389;-73
2022/11/09 03:29:38;;;;;;;3.97;3.08;;;11.90;99.90;;;;;;4953252;28;20396;-73
2022/11/09 03:32:04;;;;;;;6.75;3.35;;;11.90;99.90;;;;;;4952027;29;20827;-73
2022/11/09 03:34:29;;;;;;;4.72;3.40;;;12.00;99.90;;;;;;4952879;28;20472;-73
2022/11/09 03:36:55;;;;;;;3.10;2.80;;;12.10;99.90;;;;;;4953221;28;20880;-73
2022/11/09 03:39:20;;;;;;;3.50;3.20;;;12.10;99.90;;;;;;4952892;28;20824;-73
2022/11/09 03:41:46;;;;;;;4.03;3.17;;;12.10;99.90;;;;;;4952871;28;21117;-73
2022/11/09 03:44:12;;;;;;;3.40;3.10;;;12.10;99.90;;;;;;4952420;28;20410;-73
2022/11/09 03:46:37;;;;;;;3.60;2.50;;;12.30;99.90;;;;;;4952802;28;20907;-73
2022/11/09 03:49:03;;;;;;;3.47;2.40;;;12.60;99.90;;;;;;4952790;28;20386;-74
2022/11/09 03:51:28;;;;;;;2.70;2.20;;;12.70;99.90;;;;;;4952695;28;20398;-73
2022/11/09 03:53:54;;;;;;;2.70;2.30;;;12.70;99.90;;;;;;4952420;28;20907;-74
2022/11/09 03:56:20;;;;;;;2.40;2.13;;;12.90;99.90;;;;;;4952679;28;20891;-74
2022/11/09 03:58:45;;;;;;;2.50;2.03;;;13.10;99.90;;;;;;4951328;28;20888;-74
2022/11/09 04:01:11;;;;;;;2.10;1.70;;;13.10;99.90;;;;;;4952249;28;20409;-74
2022/11/09 04:03:37;;;;;;;2.43;1.90;;;13.30;99.90;;;;;;4952279;28;20433;-74
2022/11/09 04:06:03;;;;;;;2.78;1.70;;;13.50;99.90;;;;;;4952394;28;20478;-74
2022/11/09 04:08:28;;;;;;;1.77;1.60;;;13.50;99.90;;;;;;4952289;28;20394;-74
2022/11/09 04:10:54;;;;;;;2.50;1.70;;;13.60;99.90;;;;;;4952308;28;20756;-74
2022/11/09 04:13:19;;;;;;;2.30;1.60;;;13.60;99.90;;;;;;4952104;28;20386;-73
2022/11/09 04:15:45;;;;;;;1.50;1.10;;;13.80;99.90;;;;;;4953065;28;20405;-74
2022/11/09 04:18:14;;;;;;;1.30;1.20;;;13.90;99.90;;;;;;4952859;28;20393;-74
2022/11/09 04:20:40;;;;;;;1.30;1.10;;;13.90;99.90;;;;;;4952421;28;20409;-75
2022/11/09 04:23:08;;;;;;;2.00;1.10;;;13.90;99.90;;;;;;4952071;28;20881;-74
2022/11/09 04:25:35;;;;;;;1.90;1.30;;;13.80;99.90;;;;;;4952086;29;20589;-74
2022/11/09 04:28:02;;;;;;;1.40;1.00;;;13.60;99.90;;;;;;4952103;28;20873;-73
2022/11/09 04:30:30;;;;;;;1.60;1.10;;;13.70;99.90;;;;;;4951926;28;20421;-72
2022/11/09 04:32:56;;;;;;;1.58;1.20;;;13.60;99.90;;;;;;4952171;28;20397;-72
2022/11/09 04:35:23;;;;;;;1.30;1.20;;;13.90;99.90;;;;;;4952457;28;20401;-72
2022/11/09 04:38:00;;;;;;;1.70;1.60;;;13.80;99.90;;;;;;4952349;28;20926;-72
2022/11/09 04:40:27;;;;;;;1.50;1.20;;;13.80;99.90;;;;;;4952096;28;20405;-72
2022/11/09 04:42:53;;;;;;;1.70;1.27;;;14.00;99.90;;;;;;4952066;28;20480;-72
2022/11/09 04:45:20;;;;;;;1.30;1.20;;;14.00;99.90;;;;;;4952222;28;20501;-71
2022/11/09 04:47:45;;;;;;;1.70;1.30;;;13.70;99.90;;;;;;4952330;28;20404;-72
2022/11/09 04:50:11;;;;;;;1.40;1.30;;;13.50;99.90;;;;;;4952126;29;20490;-72
2022/11/09 04:52:37;;;;;;;1.45;1.35;;;13.30;99.90;;;;;;4952056;28;20469;-72
2022/11/09 04:55:03;;;;;;;1.52;1.42;;;13.20;99.90;;;;;;4952083;29;20468;-72
2022/11/09 04:57:29;;;;;;;1.70;1.60;;;13.10;99.90;;;;;;4952212;28;20887;-71
2022/11/09 04:59:56;;;;;;;1.55;1.45;;;13.00;99.90;;;;;;4951626;28;20658;-72
2022/11/09 05:02:22;;;;;;;1.70;1.60;;;13.10;99.90;;;;;;4952231;29;20976;-72
2022/11/09 05:04:47;;;;;;;1.90;1.80;;;13.10;99.90;;;;;;4951875;29;20430;-71
2022/11/09 05:07:13;;;;;;;3.00;1.90;;;12.90;99.90;;;;;;4952172;29;20398;-72
2022/11/09 05:09:38;;;;;;;2.30;1.90;;;12.90;99.90;;;;;;4951934;29;20390;-72
2022/11/09 05:12:04;;;;;;;2.00;1.80;;;12.90;99.90;;;;;;4951948;29;20401;-73
2022/11/09 05:14:30;;;;;;;3.20;2.20;;;12.90;99.90;;;;;;4951621;28;20406;-72
2022/11/09 05:16:55;;;;;;;2.00;1.70;;;12.90;99.90;;;;;;4951986;29;20401;-73
2022/11/09 05:19:20;;;;;;;1.77;1.50;;;13.00;99.90;;;;;;4951965;28;20872;-72
2022/11/09 05:21:46;;;;;;;2.37;2.10;;;13.00;99.90;;;;;;4955487;29;20468;-72
2022/11/09 05:24:12;;;;;;;3.00;1.90;;;13.10;99.90;;;;;;4955177;28;20460;-72
2022/11/09 05:26:39;;;;;;;2.60;1.90;;;13.10;99.90;;;;;;4955592;28;20394;-73
2022/11/09 05:29:09;;;;;;;2.28;2.05;;;13.00;99.90;;;;;;4955562;28;20481;-72
2022/11/09 05:31:35;;;;;;;2.20;1.70;;;12.90;99.90;;;;;;4955761;28;20385;-72
2022/11/09 05:34:03;;;;;;;2.50;2.10;;;12.90;99.90;;;;;;4955160;28;20752;-72
2022/11/09 05:36:29;;;;;;;2.60;2.08;;;12.80;99.90;;;;;;4955207;28;20397;-72
2022/11/09 05:38:55;;;;;;;2.17;1.97;;;12.80;99.90;;;;;;4955328;28;20417;-72
2022/11/09 05:41:22;;;;;;;2.42;2.13;;;12.80;99.90;;;;;;4955243;28;20386;-72
2022/11/09 05:43:47;;;;;;;2.55;2.35;;;12.70;99.90;;;;;;4955043;28;20389;-73
2022/11/09 05:46:14;;;;;;;2.20;2.10;;;12.90;99.90;;;;;;4955162;28;20780;-73
2022/11/09 05:48:41;;;;;;;3.47;2.50;;;12.80;99.90;;;;;;4955268;28;20401;-72
2022/11/09 05:51:08;;;;;;;2.30;2.10;;;12.80;99.90;;;;;;4951739;28;20450;-71
2022/11/09 05:53:34;;;;;;;2.30;2.10;;;12.80;99.90;;;;;;4935701;29;20933;-72
2022/11/09 05:56:08;;;;;;;2.30;2.10;;;12.90;99.90;;;;;;4936034;29;20399;-72
2022/11/09 05:58:36;;;;;;;2.15;2.00;;;12.80;99.90;;;;;;4935953;29;20399;-72
2022/11/09 06:01:06;;;;;;;4.05;2.40;;;12.70;99.90;;;;;;4935575;29;20551;-72
2022/11/09 06:03:32;;;;;;;2.70;2.50;;;12.80;99.90;;;;;;4934204;29;20473;-72
2022/11/09 06:06:03;;;;;;;2.35;2.15;;;12.80;99.90;;;;;;4935656;29;20415;-72
2022/11/09 06:08:29;;;;;;;3.03;2.72;;;12.80;99.90;;;;;;4935632;29;20388;-71
2022/11/09 06:11:00;;;;;;;3.60;2.55;;;12.80;99.90;;;;;;4935621;29;20441;-71
2022/11/09 06:13:26;;;;;;;2.50;2.30;;;12.70;99.90;;;;;;4935402;29;20757;-72
2022/11/09 06:15:56;;;;;;;2.95;2.50;;;12.60;99.90;;;;;;4935536;29;20889;-72
2022/11/09 06:18:23;;;;;;;3.20;2.73;;;12.70;99.90;;;;;;4935331;29;20523;-72
2022/11/09 06:20:53;;;;;;;3.50;2.90;;;12.70;99.90;;;;;;4942470;29;20398;-72
2022/11/09 06:23:24;;;;;;;3.78;2.60;;;12.70;99.90;;;;;;4954382;28;20400;-72
2022/11/09 06:25:56;;;;;;;1.83;1.73;;;12.70;99.90;;;;;;4954332;28;20413;-72
2022/11/09 06:28:21;;;;;;;1.35;1.08;;;13.00;99.90;;;;;;4953931;28;20440;-72
2022/11/09 06:30:47;;;;;;;1.50;0.90;;;13.50;99.90;;;;;;4953476;28;20398;-72
2022/11/09 06:33:12;;;;;;;1.90;1.40;;;13.80;99.90;;;;;;4953437;29;20895;-72
2022/11/09 06:35:38;;;;;;;2.70;1.63;;;13.80;99.90;;;;;;4954319;29;20400;-72
2022/11/09 06:38:03;;;;;;;1.70;1.10;;;13.80;99.90;;;;;;4954127;29;20428;-72
2022/11/09 06:40:30;;;;;;;2.30;1.00;;;13.90;99.90;;;;;;4954156;29;20409;-72
2022/11/09 06:42:57;;;;;;;2.03;1.10;;;13.80;99.90;;;;;;4953854;28;20836;-72
2022/11/09 06:45:23;;;;;;;1.95;1.08;;;14.00;99.90;;;;;;4952665;29;20840;-72
2022/11/09 06:47:48;;;;;;;1.80;1.00;;;14.10;99.90;;;;;;4949543;28;20433;-71
2022/11/09 06:50:14;;;;;;;2.20;1.00;;;14.40;99.90;;;;;;4949496;28;20384;-72
2022/11/09 06:52:39;;;;;;;2.00;1.00;;;14.40;99.90;;;;;;4950780;28;20418;-72
2022/11/09 06:55:07;;;;;;;1.50;1.10;;;14.40;99.90;;;;;;4945793;28;20470;-71
2022/11/09 06:57:32;;;;;;;1.50;0.95;;;14.10;99.90;;;;;;4953960;29;20425;-71
2022/11/09 06:59:59;;;;;;;1.40;1.00;;;14.00;99.90;;;;;;4953753;28;20397;-72
2022/11/09 07:02:24;;;;;;;1.33;1.00;;;14.40;99.90;;;;;;4953520;29;20401;-72
2022/11/09 07:04:53;;;;;;;1.75;0.95;;;14.60;99.90;;;;;;4953656;29;20401;-72
2022/11/09 07:07:19;;;;;;;1.70;1.20;;;14.60;99.90;;;;;;4954125;29;20425;-72
2022/11/09 07:09:44;;;;;;;1.90;1.10;;;14.60;99.90;;;;;;4954261;29;20959;-73
2022/11/09 07:12:10;;;;;;;2.40;1.00;;;14.50;99.90;;;;;;4953722;29;20472;-73
2022/11/09 07:14:35;;;;;;;1.70;1.00;;;14.60;99.90;;;;;;4952252;28;20394;-72
2022/11/09 07:17:01;;;;;;;1.90;1.02;;;14.60;99.90;;;;;;4953913;28;20445;-73
2022/11/09 07:19:30;;;;;;;1.20;0.90;;;14.60;99.90;;;;;;4953928;28;20390;-74
2022/11/09 07:21:56;;;;;;;2.00;0.90;;;14.50;99.90;;;;;;4953710;29;20450;-72
2022/11/09 07:24:22;;;;;;;1.63;1.00;;;14.50;99.90;;;;;;4953271;28;20418;-73
2022/11/09 07:26:48;;;;;;;2.60;1.17;;;14.40;99.90;;;;;;4953537;28;20429;-73
2022/11/09 07:29:14;;;;;;;1.70;1.00;;;14.40;99.90;;;;;;4953476;28;20394;-73
2022/11/09 07:31:40;;;;;;;2.10;1.80;;;14.30;99.90;;;;;;4953420;28;20400;-72
2022/11/09 07:34:05;;;;;;;1.60;1.30;;;14.30;99.90;;;;;;4953091;28;20409;-71
2022/11/09 07:36:32;;;;;;;1.27;1.17;;;14.40;99.90;;;;;;4940974;28;20413;-72
2022/11/09 07:38:58;;;;;;;1.33;1.23;;;14.40;99.90;;;;;;4943605;29;20389;-72
2022/11/09 07:41:23;;;;;;;1.30;1.20;;;14.40;99.90;;;;;;4943920;28;20414;-72
2022/11/09 07:43:49;;;;;;;1.30;1.20;;;14.30;99.90;;;;;;4952144;28;20480;-72
2022/11/09 07:46:15;;;;;;;1.93;1.10;;;14.40;99.90;;;;;;4938283;29;20466;-72
2022/11/09 07:48:41;;;;;;;1.80;1.20;;;14.40;99.90;;;;;;4945844;28;20916;-72
2022/11/09 07:51:06;;;;;;;1.90;1.30;;;14.40;99.90;;;;;;4944636;28;20884;-72
2022/11/09 07:53:33;;;;;;;2.22;1.60;;;14.30;99.90;;;;;;4942567;28;20438;-72
2022/11/09 07:56:00;;;;;;;1.90;1.30;;;14.20;99.90;;;;;;4951102;28;20457;-71
2022/11/09 07:58:26;;;;;;;1.70;1.20;;;14.30;99.90;;;;;;4934206;29;20823;-73
2022/11/09 08:00:52;;;;;;;2.00;1.50;;;14.40;99.90;;;;;;4962844;23;20890;-74
2022/11/09 08:03:18;;;;;;;1.95;1.30;;;14.50;99.90;;;;;;4971311;28;20420;-75
2022/11/09 08:05:44;;;;;;;1.85;1.50;;;14.30;99.90;;;;;;4971828;28;20459;-75
2022/11/09 08:08:10;;;;;;;2.63;1.50;;;14.40;99.90;;;;;;4970442;28;20420;-76
2022/11/09 08:10:37;;;;;;;1.67;1.58;;;14.30;99.90;;;;;;4971830;28;20384;-75
2022/11/09 08:13:05;;;;;;;3.17;1.50;;;14.30;99.90;;;;;;4971517;28;20393;-75
2022/11/09 08:15:33;;;;;;;2.10;1.35;;;14.60;99.90;;;;;;4971910;28;20388;-75
2022/11/09 08:18:01;;;;;;;1.55;1.45;;;14.50;99.90;;;;;;4971652;28;20438;-75
2022/11/09 08:20:26;;;;;;;2.10;1.20;;;14.60;99.90;;;;;;4971623;28;20388;-74
2022/11/09 08:22:52;;;;;;;1.42;1.25;;;14.80;99.90;;;;;;4970864;28;20400;-74
2022/11/09 08:25:17;;;;;;;3.10;2.00;;;14.80;99.90;;;;;;4971526;28;20455;-75
2022/11/09 08:27:43;;;;;;;3.00;1.50;;;14.80;99.90;;;;;;4971527;28;20399;-76
2022/11/09 08:30:19;;;;;;;3.70;1.13;;;14.80;99.90;;;;;;4971547;28;20395;-75
2022/11/09 08:32:47;;;;;;;2.80;1.20;;;15.00;99.90;;;;;;4969928;28;20511;-75
2022/11/09 08:35:16;;;;;;;1.20;0.90;;;15.30;99.90;;;;;;4971360;28;20427;-75
2022/11/09 08:37:43;;;;;;;1.60;0.88;;;15.50;99.90;;;;;;4971460;28;20396;-75
2022/11/09 08:40:08;;;;;;;1.30;0.85;;;15.80;99.90;;;;;;4971567;28;20392;-74
2022/11/09 08:42:34;;;;;;;1.00;0.70;;;15.90;99.90;;;;;;4970989;28;20398;-74
2022/11/09 08:45:00;;;;;;;1.27;0.90;;;16.00;99.90;;;;;;4971449;28;20503;-74
2022/11/09 08:47:27;;;;;;;1.30;1.00;;;16.10;99.90;;;;;;4971297;28;20388;-76
2022/11/09 08:49:52;;;;;;;1.70;1.10;;;16.10;99.90;;;;;;4971306;28;20962;-75
2022/11/09 08:52:18;;;;;;;1.73;1.00;;;16.00;99.90;;;;;;4971208;28;20468;-75
2022/11/09 08:54:43;;;;;;;1.35;0.93;;;16.10;99.90;;;;;;4971703;28;20483;-74
2022/11/09 08:57:09;;;;;;;1.50;0.80;;;16.10;99.90;;;;;;4974043;28;20450;-75
2022/11/09 08:59:35;;;;;;;1.50;0.90;;;16.20;99.90;;;;;;4975144;28;20406;-75
2022/11/09 09:02:01;;;;;;;1.30;1.00;;;16.10;99.90;;;;;;4975000;28;20459;-75
2022/11/09 09:04:26;;;;;;;1.30;0.90;;;16.20;99.90;;;;;;4974680;28;20528;-75
2022/11/09 09:06:52;;;;;;;1.20;0.70;;;16.30;99.90;;;;;;4975132;28;20428;-75
2022/11/09 09:09:18;;;;;;;0.90;0.80;;;16.40;99.90;;;;;;4973659;28;20396;-76
2022/11/09 09:11:44;;;;;;;1.90;1.27;;;16.50;99.90;;;;;;4974992;28;20392;-74
2022/11/09 09:14:09;;;;;;;1.30;0.80;;;16.50;99.90;;;;;;4975407;28;20380;-75
2022/11/09 09:16:35;;;;;;;1.40;0.70;;;16.50;99.90;;;;;;4974975;28;20395;-75
2022/11/09 09:19:00;;;;;;;1.05;0.80;;;16.50;99.90;;;;;;4974752;28;20384;-75
2022/11/09 09:21:26;;;;;;;1.00;0.80;;;16.60;99.90;;;;;;4974496;28;20389;-74
2022/11/09 09:23:51;;;;;;;1.00;0.80;;;16.70;99.90;;;;;;4974499;28;20763;-74
2022/11/09 09:26:17;;;;;;;1.83;1.00;;;16.90;99.90;;;;;;4973321;28;20567;-74
2022/11/09 09:28:43;;;;;;;1.60;1.10;;;16.90;99.90;;;;;;4974575;28;20403;-75
2022/11/09 09:31:09;;;;;;;1.47;1.17;;;16.70;99.90;;;;;;4974496;28;20412;-74
2022/11/09 09:33:34;;;;;;;2.53;1.10;;;16.70;99.90;;;;;;4974205;28;20393;-74
2022/11/09 09:36:00;;;;;;;2.43;1.23;;;16.70;99.90;;;;;;4974589;28;20395;-74
2022/11/09 09:38:27;;;;;;;2.40;1.10;;;16.60;99.90;;;;;;4974384;28;20458;-74
2022/11/09 09:40:58;;;;;;;1.20;1.00;;;16.40;99.90;;;;;;4974398;28;20563;-74
2022/11/09 09:43:45;;;;;;;2.80;1.20;;;16.40;99.90;;;;;;4973927;28;20388;-74
2022/11/09 09:46:24;;;;;;;1.15;1.05;;;16.50;99.90;;;;;;4974216;28;20599;-74
2022/11/09 09:48:58;;;;;;;2.35;1.38;;;16.30;99.90;;;;;;4974297;28;20761;-74
2022/11/09 09:52:02;;;;;;;1.70;1.23;;;16.20;99.90;;;;;;4974196;28;20385;-74
2022/11/09 09:54:34;;;;;;;2.08;1.30;;;16.20;99.90;;;;;;4974232;28;20778;-74
2022/11/09 09:57:00;;;;;;;1.30;1.20;;;16.20;99.90;;;;;;4974398;28;20783;-75
2022/11/09 09:59:40;;;;;;;1.50;1.00;;;16.30;99.90;;;;;;4974322;28;20395;-74
2022/11/09 10:02:25;;;;;;;2.60;1.10;;;16.30;99.90;;;;;;4974092;28;20411;-75
2022/11/09 10:04:57;;;;;;;1.27;0.90;;;16.30;99.90;;;;;;4973912;28;20493;-74
2022/11/09 10:07:36;;;;;;;1.25;0.80;;;16.30;99.90;;;;;;4973569;28;20400;-74
2022/11/09 10:10:11;;;;;;;1.40;0.80;;;16.30;99.90;;;;;;4972662;28;20899;-74
2022/11/09 10:12:55;;;;;;;1.60;1.10;;;16.40;99.90;;;;;;4973536;28;20438;-74
2022/11/09 10:15:35;;;;;;;1.90;1.33;;;16.40;99.90;;;;;;4973860;28;20399;-73
2022/11/09 10:18:38;;;;;;;0.80;0.60;;;16.30;99.90;;;;;;4972556;28;20508;-74
2022/11/09 10:21:30;;;;;;;1.05;0.70;;;16.30;99.90;;;;;;4973200;28;20399;-74
2022/11/09 10:24:21;;;;;;;1.10;0.77;;;16.40;99.90;;;;;;4973356;28;20438;-73
2022/11/09 10:26:53;;;;;;;0.73;0.70;;;16.30;99.90;;;;;;4973635;28;20400;-74
2022/11/09 10:29:20;;;;;;;0.63;0.63;;;16.40;99.90;;;;;;4973593;28;20396;-74
2022/11/09 10:31:47;;;;;;;1.00;0.80;;;16.40;99.90;;;;;;4973611;28;20409;-74
2022/11/09 10:34:25;;;;;;;1.20;0.73;;;16.30;99.90;;;;;;4973255;28;20455;-75
2022/11/09 10:37:30;;;;;;;0.90;0.80;;;16.40;99.90;;;;;;4973672;28;20431;-75
2022/11/09 10:40:05;;;;;;;1.10;0.80;;;16.40;99.90;;;;;;4972048;28;20952;-74
2022/11/09 10:42:31;;;;;;;1.00;0.63;;;16.20;99.90;;;;;;4973082;28;20395;-75
2022/11/09 10:44:58;;;;;;;0.97;0.70;;;16.00;99.90;;;;;;4973137;28;20416;-75
2022/11/09 10:47:25;;;;;;;1.80;0.60;;;16.00;99.90;;;;;;4973354;28;20439;-74
2022/11/09 10:50:18;;;;;;;1.42;0.80;;;16.00;99.90;;;;;;4973372;28;20420;-74
2022/11/09 10:52:44;;;;;;;0.90;0.80;;;15.90;99.90;;;;;;4973051;28;20407;-74
2022/11/09 10:55:20;;;;;;;0.80;0.70;;;16.00;99.90;;;;;;4973369;28;20400;-75
2022/11/09 10:58:14;;;;;;;1.10;1.00;;;15.90;99.90;;;;;;4972219;28;20408;-75
2022/11/09 11:00:57;;;;;;;1.15;0.60;;;16.00;99.90;;;;;;4973043;28;20400;-74
2022/11/09 11:03:23;;;;;;;1.25;0.90;;;16.00;99.90;;;;;;4972734;28;20420;-74
2022/11/09 11:06:00;;;;;;;1.13;0.80;;;16.00;99.90;;;;;;4972814;28;20474;-74
2022/11/09 11:08:31;;;;;;;0.70;0.60;;;15.90;99.90;;;;;;4972659;28;20392;-74
2022/11/09 11:11:14;;;;;;;1.50;0.80;;;16.00;99.90;;;;;;4971481;28;20405;-74
2022/11/09 11:13:40;;;;;;;1.42;0.60;;;16.00;99.90;;;;;;4972658;28;20392;-75
2022/11/09 11:16:42;;;;;;;1.08;0.68;;;16.00;99.90;;;;;;4972714;28;20743;-75
2022/11/09 11:19:36;;;;;;;1.00;0.55;;;15.90;99.90;;;;;;4931050;29;20782;-76
2022/11/09 11:22:11;;;;;;;1.80;0.60;;;15.90;99.90;;;;;;4971802;28;20399;-74
2022/11/09 11:25:01;;;;;;;1.10;0.50;;;16.00;99.90;;;;;;4972281;28;20465;-75
2022/11/09 11:27:48;;;;;;;0.70;0.50;;;15.90;99.90;;;;;;4967641;28;20743;-75
2022/11/09 11:30:35;;;;;;;1.40;0.60;;;15.90;99.90;;;;;;4972437;28;20463;-74
2022/11/09 11:33:01;;;;;;;0.70;0.60;;;15.80;99.90;;;;;;4970825;28;20918;-75
2022/11/09 11:35:50;;;;;;;0.90;0.80;;;15.80;99.90;;;;;;4971291;28;20408;-75
2022/11/09 11:38:26;;;;;;;1.13;0.80;;;15.70;99.90;;;;;;4979437;28;20767;-74
2022/11/09 11:41:15;;;;;;;1.20;0.80;;;15.80;99.90;;;;;;4970967;28;20791;-74
2022/11/09 11:44:00;;;;;;;0.70;0.70;;;15.70;99.90;;;;;;4972268;28;20407;-75
2022/11/09 11:46:47;;;;;;;0.90;0.55;;;15.60;99.90;;;;;;4972469;28;20408;-74
2022/11/09 11:49:31;;;;;;;2.00;0.80;;;15.50;99.90;;;;;;4972779;28;20396;-76
2022/11/09 11:52:19;;;;;;;1.00;0.80;;;15.40;99.90;;;;;;4971940;28;20384;-75
2022/11/09 11:55:07;;;;;;;1.40;0.70;;;15.50;99.90;;;;;;4971829;28;20436;-74
2022/11/09 11:58:09;;;;;;;0.70;0.63;;;15.50;99.90;;;;;;4972112;28;20458;-76
2022/11/09 12:00:52;;;;;;;1.00;0.80;;;15.50;99.90;;;;;;4970476;28;20490;-76
2022/11/09 12:03:30;;;;;;;1.10;0.88;;;15.50;99.90;;;;;;4971112;28;20396;-74
2022/11/09 12:06:09;;;;;;;1.40;1.20;;;15.50;99.90;;;;;;4971811;28;20408;-74
2022/11/09 12:08:34;;;;;;;1.90;1.10;;;15.50;99.90;;;;;;4971760;28;20447;-75
2022/11/09 12:11:25;;;;;;;2.03;1.05;;;15.40;99.90;;;;;;4971758;28;20379;-75
2022/11/09 12:13:56;;;;;;;1.45;1.30;;;15.30;99.90;;;;;;4971537;28;20383;-74
2022/11/09 12:16:54;;;;;;;3.08;1.58;;;15.20;99.90;;;;;;4971648;28;20887;-75
2022/11/09 12:19:47;;;;;;;2.10;1.30;;;15.10;99.90;;;;;;4971858;28;20541;-74
2022/11/09 12:22:36;;;;;;;1.60;1.50;;;15.10;99.90;;;;;;4971069;28;20396;-75
2022/11/09 12:25:26;;;;;;;2.00;1.70;;;15.00;99.90;;;;;;4971543;28;20435;-75
2022/11/09 12:28:10;;;;;;;1.70;1.60;;;15.00;99.90;;;;;;4971800;28;20471;-75
2022/11/09 12:30:54;;;;;;;1.45;1.20;;;15.00;99.90;;;;;;4971379;28;20928;-74
2022/11/09 12:33:55;;;;;;;1.80;1.50;;;14.90;99.90;;;;;;4969936;28;20401;-75
2022/11/09 12:36:36;;;;;;;1.60;1.50;;;14.80;99.90;;;;;;4970567;28;20436;-74
2022/11/09 12:39:35;;;;;;;2.30;1.35;;;14.80;99.90;;;;;;4973141;28;20424;-75
2022/11/09 12:42:09;;;;;;;2.13;1.40;;;14.90;99.90;;;;;;4971593;28;20392;-75
2022/11/09 12:44:45;;;;;;;0.80;0.80;;;14.80;99.90;;;;;;4971238;28;20499;-75
2022/11/09 12:47:25;;;;;;;1.10;1.00;;;14.70;99.90;;;;;;4971468;28;20385;-75
2022/11/09 12:49:53;;;;;;;1.65;1.05;;;14.70;99.90;;;;;;4971423;28;20384;-75
2022/11/09 12:52:25;;;;;;;1.33;1.00;;;14.60;99.90;;;;;;4971470;28;20384;-75
2022/11/09 12:54:53;;;;;;;1.90;1.40;;;14.70;99.90;;;;;;4970058;28;20392;-75
2022/11/09 12:57:29;;;;;;;1.60;1.50;;;14.60;99.90;;;;;;4971410;28;20897;-75
2022/11/09 12:59:56;;;;;;;1.63;1.52;;;14.50;99.90;;;;;;4971514;28;20392;-74
2022/11/09 13:02:33;;;;;;;2.58;2.22;;;14.40;99.90;;;;;;4970966;28;20560;-74